Terminal Aerodrome Forecast
Issued by NWS Cleveland, OH

Home | Current Version | Previous Version | Text Only | Print | Product List | Glossary On
Versions: 1 2 3 4 5 6 7 8 9 10 11 12 13 14 15 16 17 18 19 20 21
000
FTUS41 KCLE 301700
TAFYNG
TAF
KYNG 301740Z 3018/3118 32012G22KT 1SM -SHSN OVC018
     FM302100 33012KT 4SM -SHSN OVC025
     FM302300 32008KT P6SM SCT025 BKN035
     FM310800 20005KT P6SM BKN150=

USA.gov is the U.S. government's official web portal to all federal, state and local government web resources and services.